sensor_id;sensor_type;location;lat;lon;timestamp;temperature;humidity
13091;DHT22;6611;52.604;13.438;2023-10-19T00:02:35;7.31;73.13
13091;DHT22;6611;52.604;13.438;2023-10-19T00:07:38;7.28;73.27
13091;DHT22;6611;52.604;13.438;2023-10-19T00:12:40;7.31;73.22
13091;DHT22;6611;52.604;13.438;2023-10-19T00:17:44;7.31;73.04
13091;DHT22;6611;52.604;13.438;2023-10-19T00:22:47;7.37;72.90
13091;DHT22;6611;52.604;13.438;2023-10-19T00:27:49;7.31;73.14
13091;DHT22;6611;52.604;13.438;2023-10-19T00:32:51;7.30;73.26
13091;DHT22;6611;52.604;13.438;2023-10-19T00:37:56;7.24;73.23
13091;DHT22;6611;52.604;13.438;2023-10-19T00:43:26;7.27;73.53
13091;DHT22;6611;52.604;13.438;2023-10-19T00:48:29;7.20;73.61
13091;DHT22;6611;52.604;13.438;2023-10-19T00:53:36;7.24;73.44
13091;DHT22;6611;52.604;13.438;2023-10-19T00:58:39;7.16;73.61
13091;DHT22;6611;52.604;13.438;2023-10-19T01:03:42;7.16;73.81
13091;DHT22;6611;52.604;13.438;2023-10-19T01:08:46;7.20;73.61
13091;DHT22;6611;52.604;13.438;2023-10-19T01:13:49;7.26;73.34
13091;DHT22;6611;52.604;13.438;2023-10-19T01:18:52;7.26;73.22
13091;DHT22;6611;52.604;13.438;2023-10-19T01:23:56;7.20;73.46
13091;DHT22;6611;52.604;13.438;2023-10-19T01:28:58;7.26;73.45
13091;DHT22;6611;52.604;13.438;2023-10-19T01:34:01;7.20;73.65
13091;DHT22;6611;52.604;13.438;2023-10-19T01:39:07;7.17;73.94
13091;DHT22;6611;52.604;13.438;2023-10-19T01:44:11;7.16;73.92
13091;DHT22;6611;52.604;13.438;2023-10-19T01:49:15;7.17;73.65
13091;DHT22;6611;52.604;13.438;2023-10-19T01:54:27;7.03;73.95
13091;DHT22;6611;52.604;13.438;2023-10-19T01:59:29;7.10;73.61
13091;DHT22;6611;52.604;13.438;2023-10-19T02:04:31;7.13;73.87
13091;DHT22;6611;52.604;13.438;2023-10-19T02:09:37;7.17;73.77
13091;DHT22;6611;52.604;13.438;2023-10-19T02:14:39;7.13;73.57
13091;DHT22;6611;52.604;13.438;2023-10-19T02:19:41;7.06;73.87
13091;DHT22;6611;52.604;13.438;2023-10-19T02:24:45;7.24;73.73
13091;DHT22;6611;52.604;13.438;2023-10-19T02:29:47;7.10;74.03
13091;DHT22;6611;52.604;13.438;2023-10-19T02:34:50;7.15;74.27
13091;DHT22;6611;52.604;13.438;2023-10-19T02:39:53;7.22;74.07
13091;DHT22;6611;52.604;13.438;2023-10-19T02:44:55;7.26;73.71
13091;DHT22;6611;52.604;13.438;2023-10-19T02:49:57;7.34;73.57
13091;DHT22;6611;52.604;13.438;2023-10-19T02:55:00;7.26;73.63
13091;DHT22;6611;52.604;13.438;2023-10-19T03:00:06;7.37;73.47
13091;DHT22;6611;52.604;13.438;2023-10-19T03:05:13;7.24;73.49
13091;DHT22;6611;52.604;13.438;2023-10-19T03:10:18;7.33;73.51
13091;DHT22;6611;52.604;13.438;2023-10-19T03:15:24;7.41;73.37
13091;DHT22;6611;52.604;13.438;2023-10-19T03:20:26;7.40;73.55
13091;DHT22;6611;52.604;13.438;2023-10-19T03:25:29;7.48;72.69
13091;DHT22;6611;52.604;13.438;2023-10-19T03:30:55;7.38;73.56
13091;DHT22;6611;52.604;13.438;2023-10-19T03:35:59;7.37;73.46
13091;DHT22;6611;52.604;13.438;2023-10-19T03:41:02;7.31;73.58
13091;DHT22;6611;52.604;13.438;2023-10-19T03:46:07;7.41;73.63
13091;DHT22;6611;52.604;13.438;2023-10-19T03:51:22;7.37;74.43
13091;DHT22;6611;52.604;13.438;2023-10-19T03:56:26;7.37;74.72
13091;DHT22;6611;52.604;13.438;2023-10-19T04:01:33;7.34;74.67
13091;DHT22;6611;52.604;13.438;2023-10-19T04:06:34;7.38;74.44
13091;DHT22;6611;52.604;13.438;2023-10-19T04:11:38;7.31;73.93
13091;DHT22;6611;52.604;13.438;2023-10-19T04:16:48;7.33;74.17
13091;DHT22;6611;52.604;13.438;2023-10-19T04:21:50;7.28;73.94
13091;DHT22;6611;52.604;13.438;2023-10-19T04:26:53;7.23;74.24
13091;DHT22;6611;52.604;13.438;2023-10-19T04:31:59;7.17;74.23
13091;DHT22;6611;52.604;13.438;2023-10-19T04:37:01;7.20;74.20
13091;DHT22;6611;52.604;13.438;2023-10-19T04:42:05;7.13;73.83
13091;DHT22;6611;52.604;13.438;2023-10-19T04:47:06;7.16;73.79
13091;DHT22;6611;52.604;13.438;2023-10-19T04:52:08;7.20;74.24
13091;DHT22;6611;52.604;13.438;2023-10-19T04:57:11;7.12;74.11
13091;DHT22;6611;52.604;13.438;2023-10-19T05:02:13;7.16;73.95
13091;DHT22;6611;52.604;13.438;2023-10-19T05:07:14;7.17;74.44
13091;DHT22;6611;52.604;13.438;2023-10-19T05:12:18;7.17;73.95
13091;DHT22;6611;52.604;13.438;2023-10-19T05:17:20;7.12;74.17
13091;DHT22;6611;52.604;13.438;2023-10-19T05:22:24;7.16;74.48
13091;DHT22;6611;52.604;13.438;2023-10-19T05:27:31;7.22;73.87
13091;DHT22;6611;52.604;13.438;2023-10-19T05:32:32;7.20;74.06
13091;DHT22;6611;52.604;13.438;2023-10-19T05:37:34;7.16;74.60
13091;DHT22;6611;52.604;13.438;2023-10-19T05:42:37;7.23;74.15
13091;DHT22;6611;52.604;13.438;2023-10-19T05:47:39;7.13;74.40
13091;DHT22;6611;52.604;13.438;2023-10-19T05:52:41;7.24;75.17
13091;DHT22;6611;52.604;13.438;2023-10-19T05:57:44;7.30;74.36
13091;DHT22;6611;52.604;13.438;2023-10-19T06:02:47;7.15;75.85
13091;DHT22;6611;52.604;13.438;2023-10-19T06:07:50;7.07;75.90
13091;DHT22;6611;52.604;13.438;2023-10-19T06:12:53;6.91;77.14
13091;DHT22;6611;52.604;13.438;2023-10-19T06:17:54;6.99;77.10
13091;DHT22;6611;52.604;13.438;2023-10-19T06:22:57;6.82;77.43
13091;DHT22;6611;52.604;13.438;2023-10-19T06:28:06;6.75;78.58
13091;DHT22;6611;52.604;13.438;2023-10-19T06:33:07;6.81;78.83
13091;DHT22;6611;52.604;13.438;2023-10-19T06:38:09;6.82;79.71
13091;DHT22;6611;52.604;13.438;2023-10-19T06:43:12;6.78;79.90
13091;DHT22;6611;52.604;13.438;2023-10-19T06:48:14;6.70;80.60
13091;DHT22;6611;52.604;13.438;2023-10-19T06:53:15;6.78;80.54
13091;DHT22;6611;52.604;13.438;2023-10-19T06:58:18;6.81;80.90
13091;DHT22;6611;52.604;13.438;2023-10-19T07:03:20;6.82;80.82
13091;DHT22;6611;52.604;13.438;2023-10-19T07:08:22;6.87;80.56
13091;DHT22;6611;52.604;13.438;2023-10-19T07:13:25;6.84;80.31
13091;DHT22;6611;52.604;13.438;2023-10-19T07:18:27;7.03;80.42
13091;DHT22;6611;52.604;13.438;2023-10-19T07:23:29;7.10;80.05
13091;DHT22;6611;52.604;13.438;2023-10-19T07:28:32;7.06;79.31
13091;DHT22;6611;52.604;13.438;2023-10-19T07:33:34;7.15;79.26
13091;DHT22;6611;52.604;13.438;2023-10-19T07:38:38;7.16;78.82
13091;DHT22;6611;52.604;13.438;2023-10-19T07:43:42;7.22;79.73
13091;DHT22;6611;52.604;13.438;2023-10-19T07:48:44;7.26;79.46
13091;DHT22;6611;52.604;13.438;2023-10-19T07:53:46;7.33;78.84
13091;DHT22;6611;52.604;13.438;2023-10-19T07:58:49;7.37;77.78
13091;DHT22;6611;52.604;13.438;2023-10-19T08:03:51;7.30;78.59
13091;DHT22;6611;52.604;13.438;2023-10-19T08:08:53;7.19;77.74
13091;DHT22;6611;52.604;13.438;2023-10-19T08:13:56;7.28;77.72
13091;DHT22;6611;52.604;13.438;2023-10-19T08:18:58;7.34;78.09
13091;DHT22;6611;52.604;13.438;2023-10-19T08:24:00;7.35;78.50
13091;DHT22;6611;52.604;13.438;2023-10-19T08:29:06;7.40;78.16
13091;DHT22;6611;52.604;13.438;2023-10-19T08:34:13;7.38;78.05
13091;DHT22;6611;52.604;13.438;2023-10-19T08:39:16;7.47;77.86
13091;DHT22;6611;52.604;13.438;2023-10-19T08:44:20;7.52;77.24
13091;DHT22;6611;52.604;13.438;2023-10-19T08:49:21;7.58;77.61
13091;DHT22;6611;52.604;13.438;2023-10-19T08:54:23;7.74;78.16
13091;DHT22;6611;52.604;13.438;2023-10-19T08:59:27;7.86;77.47
13091;DHT22;6611;52.604;13.438;2023-10-19T09:04:29;8.03;76.38
13091;DHT22;6611;52.604;13.438;2023-10-19T09:09:30;8.04;75.99
13091;DHT22;6611;52.604;13.438;2023-10-19T09:14:35;8.12;76.55
13091;DHT22;6611;52.604;13.438;2023-10-19T09:19:44;8.10;75.88
13091;DHT22;6611;52.604;13.438;2023-10-19T09:24:49;8.10;75.54
13091;DHT22;6611;52.604;13.438;2023-10-19T09:29:52;8.10;76.71
13091;DHT22;6611;52.604;13.438;2023-10-19T09:34:55;8.12;76.57
13091;DHT22;6611;52.604;13.438;2023-10-19T09:39:57;8.13;76.12
13091;DHT22;6611;52.604;13.438;2023-10-19T09:45:04;8.14;75.92
13091;DHT22;6611;52.604;13.438;2023-10-19T09:50:07;8.16;76.63
13091;DHT22;6611;52.604;13.438;2023-10-19T09:55:17;8.17;76.96
13091;DHT22;6611;52.604;13.438;2023-10-19T10:00:21;8.26;77.25
13091;DHT22;6611;52.604;13.438;2023-10-19T10:05:46;8.40;76.63
13091;DHT22;6611;52.604;13.438;2023-10-19T10:10:52;8.38;76.77
13091;DHT22;6611;52.604;13.438;2023-10-19T10:15:56;8.34;76.91
13091;DHT22;6611;52.604;13.438;2023-10-19T10:21:05;8.33;77.31
13091;DHT22;6611;52.604;13.438;2023-10-19T10:26:09;8.34;77.14
13091;DHT22;6611;52.604;13.438;2023-10-19T10:31:14;8.31;76.74
13091;DHT22;6611;52.604;13.438;2023-10-19T10:36:18;8.37;76.72
13091;DHT22;6611;52.604;13.438;2023-10-19T10:41:21;8.34;75.97
13091;DHT22;6611;52.604;13.438;2023-10-19T10:46:25;8.36;76.56
13091;DHT22;6611;52.604;13.438;2023-10-19T10:51:28;8.34;76.57
13091;DHT22;6611;52.604;13.438;2023-10-19T10:56:30;8.36;75.93
13091;DHT22;6611;52.604;13.438;2023-10-19T11:01:33;8.37;76.64
13091;DHT22;6611;52.604;13.438;2023-10-19T11:06:46;8.40;77.12
13091;DHT22;6611;52.604;13.438;2023-10-19T11:11:49;8.26;76.41
13091;DHT22;6611;52.604;13.438;2023-10-19T11:16:55;8.29;77.41
13091;DHT22;6611;52.604;13.438;2023-10-19T11:22:12;8.36;76.14
13091;DHT22;6611;52.604;13.438;2023-10-19T11:27:22;8.37;76.31
13091;DHT22;6611;52.604;13.438;2023-10-19T11:32:36;8.36;77.33
13091;DHT22;6611;52.604;13.438;2023-10-19T11:37:48;8.45;77.14
13091;DHT22;6611;52.604;13.438;2023-10-19T11:42:52;8.31;78.63
13091;DHT22;6611;52.604;13.438;2023-10-19T11:47:58;8.41;78.73
13091;DHT22;6611;52.604;13.438;2023-10-19T11:53:00;8.40;79.93
13091;DHT22;6611;52.604;13.438;2023-10-19T11:58:01;8.45;80.36
13091;DHT22;6611;52.604;13.438;2023-10-19T12:03:05;8.40;81.80
13091;DHT22;6611;52.604;13.438;2023-10-19T12:08:07;8.58;81.85
13091;DHT22;6611;52.604;13.438;2023-10-19T12:13:09;8.62;82.16
13091;DHT22;6611;52.604;13.438;2023-10-19T12:18:12;8.58;82.47
13091;DHT22;6611;52.604;13.438;2023-10-19T12:23:14;8.59;82.01
13091;DHT22;6611;52.604;13.438;2023-10-19T12:28:16;8.52;82.23
13091;DHT22;6611;52.604;13.438;2023-10-19T12:33:19;8.54;82.46
13091;DHT22;6611;52.604;13.438;2023-10-19T12:38:21;8.52;82.36
13091;DHT22;6611;52.604;13.438;2023-10-19T12:43:22;8.52;82.49
13091;DHT22;6611;52.604;13.438;2023-10-19T12:48:26;8.57;82.67
13091;DHT22;6611;52.604;13.438;2023-10-19T12:53:33;8.40;83.03
13091;DHT22;6611;52.604;13.438;2023-10-19T12:58:35;8.36;83.36
13091;DHT22;6611;52.604;13.438;2023-10-19T13:03:38;8.33;83.49
13091;DHT22;6611;52.604;13.438;2023-10-19T13:08:41;8.31;83.53
13091;DHT22;6611;52.604;13.438;2023-10-19T13:13:43;8.27;83.56
13091;DHT22;6611;52.604;13.438;2023-10-19T13:18:46;8.33;83.26
13091;DHT22;6611;52.604;13.438;2023-10-19T13:23:50;8.29;83.30
13091;DHT22;6611;52.604;13.438;2023-10-19T13:28:52;8.38;82.80
13091;DHT22;6611;52.604;13.438;2023-10-19T13:33:57;8.30;83.40
13091;DHT22;6611;52.604;13.438;2023-10-19T13:39:00;8.24;83.06
13091;DHT22;6611;52.604;13.438;2023-10-19T13:44:01;8.19;83.06
13091;DHT22;6611;52.604;13.438;2023-10-19T13:49:06;8.19;83.50
13091;DHT22;6611;52.604;13.438;2023-10-19T13:54:10;8.17;84.09
13091;DHT22;6611;52.604;13.438;2023-10-19T13:59:11;8.02;84.01
13091;DHT22;6611;52.604;13.438;2023-10-19T14:04:16;8.14;83.84
13091;DHT22;6611;52.604;13.438;2023-10-19T14:09:18;8.04;83.59
13091;DHT22;6611;52.604;13.438;2023-10-19T14:14:20;8.04;83.79
13091;DHT22;6611;52.604;13.438;2023-10-19T14:19:23;8.09;83.72
13091;DHT22;6611;52.604;13.438;2023-10-19T14:24:26;8.06;84.11
13091;DHT22;6611;52.604;13.438;2023-10-19T14:29:27;8.14;83.50
13091;DHT22;6611;52.604;13.438;2023-10-19T14:34:31;8.10;83.71
13091;DHT22;6611;52.604;13.438;2023-10-19T14:39:32;8.03;84.09
13091;DHT22;6611;52.604;13.438;2023-10-19T14:44:34;8.00;84.68
13091;DHT22;6611;52.604;13.438;2023-10-19T14:49:37;7.97;85.05
13091;DHT22;6611;52.604;13.438;2023-10-19T14:54:39;7.93;85.35
13091;DHT22;6611;52.604;13.438;2023-10-19T14:59:40;7.92;85.55
13091;DHT22;6611;52.604;13.438;2023-10-19T15:04:45;7.97;85.62
13091;DHT22;6611;52.604;13.438;2023-10-19T15:09:47;7.93;85.45
13091;DHT22;6611;52.604;13.438;2023-10-19T15:14:48;7.95;85.93
13091;DHT22;6611;52.604;13.438;2023-10-19T15:19:52;7.97;85.89
13091;DHT22;6611;52.604;13.438;2023-10-19T15:24:54;8.06;85.39
13091;DHT22;6611;52.604;13.438;2023-10-19T15:29:56;8.04;85.52
13091;DHT22;6611;52.604;13.438;2023-10-19T15:34:59;8.09;85.64
13091;DHT22;6611;52.604;13.438;2023-10-19T15:40:01;8.03;85.45
13091;DHT22;6611;52.604;13.438;2023-10-19T15:45:05;8.06;85.67
13091;DHT22;6611;52.604;13.438;2023-10-19T15:50:10;8.06;85.58
13091;DHT22;6611;52.604;13.438;2023-10-19T15:55:13;7.96;86.12
13091;DHT22;6611;52.604;13.438;2023-10-19T16:00:15;7.96;86.26
13091;DHT22;6611;52.604;13.438;2023-10-19T16:05:19;8.07;86.05
13091;DHT22;6611;52.604;13.438;2023-10-19T16:10:20;8.02;86.46
13091;DHT22;6611;52.604;13.438;2023-10-19T16:15:22;8.00;86.90
13091;DHT22;6611;52.604;13.438;2023-10-19T16:20:25;8.00;86.85
13091;DHT22;6611;52.604;13.438;2023-10-19T16:25:27;8.04;86.81
13091;DHT22;6611;52.604;13.438;2023-10-19T16:30:29;8.09;86.88
13091;DHT22;6611;52.604;13.438;2023-10-19T16:35:33;8.07;87.05
13091;DHT22;6611;52.604;13.438;2023-10-19T16:40:35;8.06;87.08
13091;DHT22;6611;52.604;13.438;2023-10-19T16:45:36;8.04;87.09
13091;DHT22;6611;52.604;13.438;2023-10-19T16:50:39;8.03;87.26
13091;DHT22;6611;52.604;13.438;2023-10-19T16:55:41;8.03;87.31
13091;DHT22;6611;52.604;13.438;2023-10-19T17:00:43;7.97;87.34
13091;DHT22;6611;52.604;13.438;2023-10-19T17:05:47;8.00;87.46
13091;DHT22;6611;52.604;13.438;2023-10-19T17:10:50;8.00;87.45
13091;DHT22;6611;52.604;13.438;2023-10-19T17:15:53;7.96;87.71
13091;DHT22;6611;52.604;13.438;2023-10-19T17:20:56;7.96;87.75
13091;DHT22;6611;52.604;13.438;2023-10-19T17:25:57;8.03;87.68
13091;DHT22;6611;52.604;13.438;2023-10-19T17:31:00;7.99;87.72
13091;DHT22;6611;52.604;13.438;2023-10-19T17:36:03;7.96;88.07
13091;DHT22;6611;52.604;13.438;2023-10-19T17:41:07;8.00;87.97
13091;DHT22;6611;52.604;13.438;2023-10-19T17:46:11;8.09;87.88
13091;DHT22;6611;52.604;13.438;2023-10-19T17:51:16;8.04;87.75
13091;DHT22;6611;52.604;13.438;2023-10-19T17:56:18;8.03;87.95
13091;DHT22;6611;52.604;13.438;2023-10-19T18:01:20;8.02;87.99
13091;DHT22;6611;52.604;13.438;2023-10-19T18:06:23;8.10;87.92
13091;DHT22;6611;52.604;13.438;2023-10-19T18:11:25;8.04;88.04
13091;DHT22;6611;52.604;13.438;2023-10-19T18:16:27;7.99;88.15
13091;DHT22;6611;52.604;13.438;2023-10-19T18:21:32;7.96;88.20
13091;DHT22;6611;52.604;13.438;2023-10-19T18:26:34;7.97;88.19
13091;DHT22;6611;52.604;13.438;2023-10-19T18:31:37;7.95;88.26
13091;DHT22;6611;52.604;13.438;2023-10-19T18:36:41;8.02;88.22
13091;DHT22;6611;52.604;13.438;2023-10-19T18:41:42;8.10;88.43
13091;DHT22;6611;52.604;13.438;2023-10-19T18:46:44;8.17;88.18
13091;DHT22;6611;52.604;13.438;2023-10-19T18:51:47;8.26;87.82
13091;DHT22;6611;52.604;13.438;2023-10-19T18:56:49;8.17;87.46
13091;DHT22;6611;52.604;13.438;2023-10-19T19:01:50;8.07;88.01
13091;DHT22;6611;52.604;13.438;2023-10-19T19:06:53;8.04;88.29
13091;DHT22;6611;52.604;13.438;2023-10-19T19:11:55;8.07;88.27
13091;DHT22;6611;52.604;13.438;2023-10-19T19:16:57;8.07;88.33
13091;DHT22;6611;52.604;13.438;2023-10-19T19:22:01;7.96;88.50
13091;DHT22;6611;52.604;13.438;2023-10-19T19:27:03;7.87;88.70
13091;DHT22;6611;52.604;13.438;2023-10-19T19:32:06;8.02;89.11
13091;DHT22;6611;52.604;13.438;2023-10-19T19:37:09;8.10;88.85
13091;DHT22;6611;52.604;13.438;2023-10-19T19:42:11;8.13;88.58
13091;DHT22;6611;52.604;13.438;2023-10-19T19:47:13;8.03;88.12
13091;DHT22;6611;52.604;13.438;2023-10-19T19:52:16;8.04;88.34
13091;DHT22;6611;52.604;13.438;2023-10-19T19:57:17;8.04;88.11
13091;DHT22;6611;52.604;13.438;2023-10-19T20:02:19;7.83;88.76
13091;DHT22;6611;52.604;13.438;2023-10-19T20:07:22;7.85;88.56
13091;DHT22;6611;52.604;13.438;2023-10-19T20:12:24;7.74;88.82
13091;DHT22;6611;52.604;13.438;2023-10-19T20:17:25;7.72;89.01
13091;DHT22;6611;52.604;13.438;2023-10-19T20:22:28;7.69;89.08
13091;DHT22;6611;52.604;13.438;2023-10-19T20:27:32;7.67;89.18
13091;DHT22;6611;52.604;13.438;2023-10-19T20:32:34;7.68;89.07
13091;DHT22;6611;52.604;13.438;2023-10-19T20:37:38;7.75;88.80
13091;DHT22;6611;52.604;13.438;2023-10-19T20:42:40;7.72;89.04
13091;DHT22;6611;52.604;13.438;2023-10-19T20:47:46;7.76;88.68
13091;DHT22;6611;52.604;13.438;2023-10-19T20:52:51;7.76;89.00
13091;DHT22;6611;52.604;13.438;2023-10-19T20:57:53;7.75;88.55
13091;DHT22;6611;52.604;13.438;2023-10-19T21:02:55;7.74;88.70
13091;DHT22;6611;52.604;13.438;2023-10-19T21:07:58;7.65;89.15
13091;DHT22;6611;52.604;13.438;2023-10-19T21:13:00;7.76;88.75
13091;DHT22;6611;52.604;13.438;2023-10-19T21:18:03;7.68;88.86
13091;DHT22;6611;52.604;13.438;2023-10-19T21:23:09;7.62;89.47
13091;DHT22;6611;52.604;13.438;2023-10-19T21:28:10;7.57;89.30
13091;DHT22;6611;52.604;13.438;2023-10-19T21:33:12;7.67;89.34
13091;DHT22;6611;52.604;13.438;2023-10-19T21:38:15;7.65;89.31
13091;DHT22;6611;52.604;13.438;2023-10-19T21:43:17;7.67;89.22
13091;DHT22;6611;52.604;13.438;2023-10-19T21:48:18;7.69;88.74
13091;DHT22;6611;52.604;13.438;2023-10-19T21:53:22;7.65;88.81
13091;DHT22;6611;52.604;13.438;2023-10-19T21:58:23;7.55;89.06
13091;DHT22;6611;52.604;13.438;2023-10-19T22:03:25;7.59;89.04
13091;DHT22;6611;52.604;13.438;2023-10-19T22:08:28;7.58;89.42
13091;DHT22;6611;52.604;13.438;2023-10-19T22:13:30;7.59;89.64
13091;DHT22;6611;52.604;13.438;2023-10-19T22:18:32;7.65;89.32
13091;DHT22;6611;52.604;13.438;2023-10-19T22:23:35;7.57;89.54
13091;DHT22;6611;52.604;13.438;2023-10-19T22:28:36;7.50;89.55
13091;DHT22;6611;52.604;13.438;2023-10-19T22:33:38;7.55;89.67
13091;DHT22;6611;52.604;13.438;2023-10-19T22:38:41;7.54;89.37
13091;DHT22;6611;52.604;13.438;2023-10-19T22:43:43;7.62;89.24
13091;DHT22;6611;52.604;13.438;2023-10-19T22:48:46;7.59;89.49
13091;DHT22;6611;52.604;13.438;2023-10-19T22:53:49;7.57;89.68
13091;DHT22;6611;52.604;13.438;2023-10-19T22:58:51;7.64;89.28
13091;DHT22;6611;52.604;13.438;2023-10-19T23:03:53;7.59;89.56
13091;DHT22;6611;52.604;13.438;2023-10-19T23:08:56;7.62;89.49
13091;DHT22;6611;52.604;13.438;2023-10-19T23:13:59;7.58;89.52
13091;DHT22;6611;52.604;13.438;2023-10-19T23:19:03;7.58;89.35
13091;DHT22;6611;52.604;13.438;2023-10-19T23:24:09;7.50;89.71
13091;DHT22;6611;52.604;13.438;2023-10-19T23:29:16;7.48;89.78
13091;DHT22;6611;52.604;13.438;2023-10-19T23:34:18;7.50;89.99
13091;DHT22;6611;52.604;13.438;2023-10-19T23:39:21;7.52;89.79
13091;DHT22;6611;52.604;13.438;2023-10-19T23:44:27;7.47;89.57
13091;DHT22;6611;52.604;13.438;2023-10-19T23:49:33;7.44;89.99
13091;DHT22;6611;52.604;13.438;2023-10-19T23:54:36;7.44;89.99
13091;DHT22;6611;52.604;13.438;2023-10-19T23:59:38;7.43;90.21
